Darstellungsparameter: Aktuell verwendete Einstellungen:
Skalierung der Graphiken ... ?
xyx+y,   Skalierungsfaktor:      Skalierung: Modus: x, Faktor: 1
Darstellungszeitraum ... ?
Vom - - bis: - -   Zeitraum: 14.11.2008 - 16.11.2008
Min/Max/Avg-Anzeige ... ?
Zeige MMA aktuell
Zeige MMA Monat
Zeige MMA alles
Zeige --A aktuell
Zeige --A Monat
Zeige --A alles
Keine MMA-Anzeige
MMA:
Average (ber die Originaldaten)
MMA-Basis: 17.04.2019 - 19.05.2019
Quicknavigation für Darstellung... ?
Tage:      1T, 2T, 3T, 5T -1T -2T -3T -5T +1T +2T +3T +5T
Wochen: 1W, 2W, 3W -1W -2W -3W +1W +2W +3W
Monate: 1M, 3M, 6M -1M -3M -6M +1M +3M +6M
Jahre:    1J, 3J, 5J, 10J -1J -3J -5J -10J +1J +3J +5J +10J
Nutze für die Darstellung ... ?
Originaldaten oder Mittelwerte auf ...
Stundenbasis Tagesbasis Wochenbasis
Monatsbasis Jahresbasis      Datenbasis: Original-Daten
Darstellen als:
Statistik (Auto) Statistik J:M      Darstellung:
Zur Graphik,    zurück zur Übersicht aller Sensoren.
 
Tabellarische Datenbersicht: ?
 
Sensor: Nr:Datum:Temp:Abs-Feuchte:Windchill:Wind:
Aussen-T/F 1 14-11-2008 00:05:02 3.5 C 5.47 g/m*3 3.5 C 0 km/h
2 14-11-2008 00:17:02 3.5 C 5.47 g/m*3 3.5 C 0 km/h
3 14-11-2008 00:29:02 3.6 C 5.57 g/m*3 3.6 C 0 km/h
4 14-11-2008 00:41:02 3.6 C 5.57 g/m*3 3.6 C 0 km/h
5 14-11-2008 00:53:02 3.4 C 5.5 g/m*3 3.4 C 0 km/h
6 14-11-2008 01:05:02 3.1 C 5.39 g/m*3 3.1 C 0 km/h
7 14-11-2008 01:17:02 2.7 C 5.24 g/m*3 2.7 C 0 km/h
8 14-11-2008 01:29:02 2.6 C 5.27 g/m*3 2.6 C 0 km/h
9 14-11-2008 01:41:01 2.6 C 5.27 g/m*3 2.6 C 0 km/h
10 14-11-2008 01:53:01 2.5 C 5.23 g/m*3 2.5 C 0 km/h
11 14-11-2008 02:05:01 2.2 C 5.13 g/m*3 2.2 C 0 km/h
12 14-11-2008 02:17:01 2.2 C 5.13 g/m*3 2.2 C 0 km/h
13 14-11-2008 02:29:01 2.1 C 5.09 g/m*3 2.1 C 0 km/h
14 14-11-2008 02:41:01 2.5 C 5.29 g/m*3 2.5 C 0 km/h
15 14-11-2008 02:54:06 2.3 C 5.22 g/m*3 2.3 C 0 km/h
16 14-11-2008 03:06:06 2.5 C 5.29 g/m*3 2.5 C 0 km/h
17 14-11-2008 03:18:07 2.3 C 5.22 g/m*3 2.3 C 0 km/h
18 14-11-2008 03:30:07 2 C 5.11 g/m*3 2 C 0 km/h
19 14-11-2008 03:42:02 1.9 C 5.13 g/m*3 1.9 C 0 km/h
20 14-11-2008 03:54:02 1.7 C 5.06 g/m*3 1.7 C 0 km/h
21 14-11-2008 04:06:02 1.9 C 5.19 g/m*3 1.9 C 0 km/h
22 14-11-2008 04:18:02 1.8 C 5.15 g/m*3 1.8 C 0 km/h
23 14-11-2008 04:30:02 1.9 C 5.19 g/m*3 1.9 C 0 km/h
24 14-11-2008 04:42:02 2 C 5.22 g/m*3 2 C 0 km/h
25 14-11-2008 04:54:02 2 C 5.22 g/m*3 2 C 0 km/h
Sensor: Nr:Datum:Temp:Abs-Feuchte:Windchill:Wind:
Aussen-T/F 26 14-11-2008 05:06:02 2 C 5.28 g/m*3 2 C 0 km/h
27 14-11-2008 05:18:02 2.1 C 5.31 g/m*3 2.1 C 0 km/h
28 14-11-2008 05:30:02 2.2 C 5.35 g/m*3 2.2 C 0 km/h
29 14-11-2008 05:42:02 2.2 C 5.35 g/m*3 2.2 C 0 km/h
30 14-11-2008 05:54:01 2.2 C 5.35 g/m*3 2.2 C 0 km/h
31 14-11-2008 06:06:02 2.3 C 5.39 g/m*3 2.3 C 0 km/h
32 14-11-2008 06:18:02 2.2 C 5.29 g/m*3 2.2 C 0 km/h
33 14-11-2008 06:30:02 2.1 C 5.26 g/m*3 2.1 C 0 km/h
34 14-11-2008 06:42:01 2 C 5.22 g/m*3 2 C 0 km/h
35 14-11-2008 06:54:01 1.8 C 5.15 g/m*3 1.8 C 0 km/h
36 14-11-2008 07:06:02 1.7 C 5.06 g/m*3 1.7 C 0 km/h
37 14-11-2008 07:18:02 1.5 C 4.99 g/m*3 1.5 C 0 km/h
38 14-11-2008 07:30:02 1.4 C 4.91 g/m*3 1.4 C 0 km/h
39 14-11-2008 07:42:02 1.6 C 5.03 g/m*3 1.6 C 0 km/h
40 14-11-2008 07:54:02 1.9 C 5.13 g/m*3 1.9 C 0 km/h
41 14-11-2008 08:06:02 2 C 5.11 g/m*3 2 C 0 km/h
42 14-11-2008 08:18:01 2.2 C 5.18 g/m*3 2.2 C 0 km/h
43 14-11-2008 08:30:01 2.1 C 5.09 g/m*3 2.1 C 0 km/h
44 14-11-2008 08:42:02 2.2 C 5.13 g/m*3 2.2 C 0 km/h
45 14-11-2008 08:54:02 2.5 C 5.17 g/m*3 2.5 C 0 km/h
46 14-11-2008 09:06:02 2.9 C 5.26 g/m*3 2.9 C 0 km/h
47 14-11-2008 09:18:02 3.3 C 5.34 g/m*3 3.3 C 0 km/h
48 14-11-2008 09:30:02 3.6 C 5.45 g/m*3 3.6 C 0 km/h
49 14-11-2008 09:42:02 3.9 C 5.49 g/m*3 3.9 C 0 km/h
50 14-11-2008 09:54:02 4.2 C 5.48 g/m*3 4.2 C 0 km/h
Sensor: Nr:Datum:Temp:Abs-Feuchte:Windchill:Wind:
Aussen-T/F 51 14-11-2008 10:06:01 4.5 C 5.52 g/m*3 4.5 C 0 km/h
52 14-11-2008 10:18:02 4.7 C 5.53 g/m*3 4.7 C 0 km/h
53 14-11-2008 10:30:02 4.6 C 5.29 g/m*3 4.6 C 0 km/h
54 14-11-2008 10:42:01 5.1 C 5.27 g/m*3 5.1 C 0 km/h
55 14-11-2008 10:54:03 5.6 C 5.16 g/m*3 5.6 C 0 km/h
56 14-11-2008 11:06:02 5.7 C 5.12 g/m*3 5.7 C 0 km/h
57 14-11-2008 11:18:02 6 C 5.23 g/m*3 6 C 0 km/h
58 14-11-2008 11:30:02 6.8 C 4.97 g/m*3 6.8 C 0 km/h
59 14-11-2008 11:42:02 7.5 C 4.72 g/m*3 7.5 C 0 km/h
60 14-11-2008 11:54:02 8.2 C 4.61 g/m*3 8.2 C 0 km/h
61 14-11-2008 12:06:02 8.8 C 4.44 g/m*3 8.8 C 0 km/h
62 14-11-2008 12:18:02 9 C 4.32 g/m*3 9 C 0 km/h
63 14-11-2008 12:30:02 9 C 4.32 g/m*3 9 C 0 km/h
64 14-11-2008 12:42:02 8.9 C 4.38 g/m*3 8.9 C 0 km/h
65 14-11-2008 12:54:02 9 C 4.41 g/m*3 9 C 0 km/h
66 14-11-2008 13:06:02 8.9 C 4.38 g/m*3 8.9 C 0 km/h
67 14-11-2008 13:18:02 9.1 C 4.35 g/m*3 9.1 C 0 km/h
68 14-11-2008 13:30:02 9.1 C 4.35 g/m*3 9.1 C 0 km/h
69 14-11-2008 13:42:02 8.9 C 4.38 g/m*3 8.9 C 0 km/h
70 14-11-2008 13:54:01 8.8 C 4.44 g/m*3 8.8 C 0 km/h
71 14-11-2008 14:06:02 8.8 C 4.61 g/m*3 8.8 C 0 km/h
72 14-11-2008 14:18:02 8.7 C 4.84 g/m*3 8.7 C 0 km/h
73 14-11-2008 14:30:02 8.6 C 4.81 g/m*3 8.6 C 0 km/h
74 14-11-2008 14:42:02 8.5 C 4.87 g/m*3 8.5 C 0 km/h
75 14-11-2008 14:54:02 8.5 C 4.95 g/m*3 8.5 C 0 km/h
Sensor: Nr:Datum:Temp:Abs-Feuchte:Windchill:Wind:
Aussen-T/F 76 14-11-2008 15:06:02 8.2 C 5.19 g/m*3 8.2 C 0 km/h
77 14-11-2008 15:18:01 7.9 C 5.5 g/m*3 7.9 C 0 km/h
78 14-11-2008 15:30:01 7.8 C 5.63 g/m*3 7.8 C 0 km/h
79 14-11-2008 15:42:02 7.6 C 5.64 g/m*3 7.6 C 0 km/h
80 14-11-2008 15:54:02 7.5 C 5.76 g/m*3 7.5 C 0 km/h
81 14-11-2008 16:06:02 7.8 C 5.79 g/m*3 7.8 C 0 km/h
82 14-11-2008 16:18:02 7.9 C 5.83 g/m*3 7.9 C 0 km/h
83 14-11-2008 16:30:02 8 C 5.87 g/m*3 8 C 0 km/h
84 14-11-2008 16:42:02 8.1 C 5.82 g/m*3 8.1 C 0 km/h
85 14-11-2008 16:54:02 8.1 C 5.74 g/m*3 8.1 C 0 km/h
86 14-11-2008 17:06:02 8.1 C 5.82 g/m*3 8.1 C 0 km/h
87 14-11-2008 17:18:01 8.1 C 5.82 g/m*3 8.1 C 0 km/h
88 14-11-2008 17:30:01 8.1 C 5.82 g/m*3 8.1 C 0 km/h
89 14-11-2008 17:42:02 8.1 C 5.74 g/m*3 8.1 C 0 km/h
90 14-11-2008 17:54:02 8.1 C 5.82 g/m*3 8.1 C 0 km/h
91 14-11-2008 18:06:02 8.1 C 5.82 g/m*3 8.1 C 0 km/h
92 14-11-2008 18:18:02 8.1 C 5.74 g/m*3 8.1 C 0 km/h
93 14-11-2008 18:30:02 8.1 C 5.74 g/m*3 8.1 C 0 km/h
94 14-11-2008 18:42:02 8.1 C 5.74 g/m*3 8.1 C 0 km/h
95 14-11-2008 18:54:02 8.1 C 5.74 g/m*3 8.1 C 0 km/h
96 14-11-2008 19:06:02 8.2 C 5.86 g/m*3 8.2 C 0 km/h
97 14-11-2008 19:18:02 8.1 C 5.74 g/m*3 8.1 C 0 km/h
98 14-11-2008 19:30:03 8.1 C 5.82 g/m*3 8.1 C 0 km/h
99 14-11-2008 19:42:02 8.1 C 5.82 g/m*3 8.1 C 0 km/h
100 14-11-2008 19:54:01 8.1 C 5.82 g/m*3 8.1 C 0 km/h
Sensor: Nr:Datum:Temp:Abs-Feuchte:Windchill:Wind:
Aussen-T/F 101 14-11-2008 20:06:02 8.1 C 5.82 g/m*3 8.1 C 0 km/h
102 14-11-2008 20:18:01 8.1 C 5.91 g/m*3 8.1 C 0 km/h
103 14-11-2008 20:30:01 8 C 5.95 g/m*3 8 C 0 km/h
104 14-11-2008 20:42:02 8 C 5.95 g/m*3 8 C 0 km/h
105 14-11-2008 20:54:02 8 C 5.95 g/m*3 8 C 0 km/h
106 14-11-2008 21:06:02 8 C 5.95 g/m*3 8 C 0 km/h
107 14-11-2008 21:18:02 8 C 5.95 g/m*3 8 C 0 km/h
108 14-11-2008 21:30:02 8 C 5.95 g/m*3 8 C 0 km/h
109 14-11-2008 21:42:02 7.9 C 6 g/m*3 7.9 C 0 km/h
110 14-11-2008 21:54:02 7.9 C 6 g/m*3 7.9 C 0 km/h
111 14-11-2008 22:06:01 8 C 5.95 g/m*3 8 C 0 km/h
112 14-11-2008 22:18:02 8 C 5.95 g/m*3 8 C 0 km/h
113 14-11-2008 22:30:02 8 C 5.95 g/m*3 8 C 0 km/h
114 14-11-2008 22:43:01 8 C 6.04 g/m*3 8 C 0 km/h
115 14-11-2008 22:55:01 8 C 6.12 g/m*3 8 C 0 km/h
116 14-11-2008 23:07:01 8.1 C 6.16 g/m*3 8.1 C 0 km/h
117 14-11-2008 23:19:01 8.2 C 6.28 g/m*3 8.2 C 0 km/h
118 14-11-2008 23:31:01 8.2 C 6.28 g/m*3 8.2 C 0 km/h
119 14-11-2008 23:43:01 8.1 C 6.24 g/m*3 8.1 C 0 km/h
120 14-11-2008 23:55:01 8.1 C 6.32 g/m*3 8.1 C 0 km/h
121 15-11-2008 00:07:01 8.1 C 6.32 g/m*3 8.1 C 0 km/h
122 15-11-2008 00:19:01 8.1 C 6.32 g/m*3 8.1 C 0 km/h
123 15-11-2008 00:31:01 8.1 C 6.41 g/m*3 8.1 C 0 km/h
124 15-11-2008 00:43:02 8.1 C 6.41 g/m*3 8.1 C 0 km/h
125 15-11-2008 00:55:02 8.1 C 6.49 g/m*3 8.1 C 0 km/h
Sensor: Nr:Datum:Temp:Abs-Feuchte:Windchill:Wind:
Aussen-T/F 126 15-11-2008 01:07:02 8.1 C 6.49 g/m*3 8.1 C 0 km/h
127 15-11-2008 01:19:02 8 C 6.45 g/m*3 8 C 0 km/h
128 15-11-2008 01:31:02 8 C 6.53 g/m*3 8 C 0 km/h
129 15-11-2008 01:43:02 8.1 C 6.57 g/m*3 8.1 C 0 km/h
130 15-11-2008 01:55:02 8.1 C 6.57 g/m*3 8.1 C 0 km/h
131 15-11-2008 02:07:02 8.2 C 6.62 g/m*3 8.2 C 0 km/h
132 15-11-2008 02:19:02 8.2 C 6.62 g/m*3 8.2 C 0 km/h
133 15-11-2008 02:31:02 8.2 C 6.62 g/m*3 8.2 C 0 km/h
134 15-11-2008 02:43:02 8.2 C 6.62 g/m*3 8.2 C 0 km/h
135 15-11-2008 02:55:02 8.2 C 6.62 g/m*3 8.2 C 0 km/h
136 15-11-2008 03:07:02 8.2 C 6.62 g/m*3 8.2 C 0 km/h
137 15-11-2008 03:19:02 8.2 C 6.62 g/m*3 8.2 C 0 km/h
138 15-11-2008 03:31:02 8.2 C 6.62 g/m*3 8.2 C 0 km/h
139 15-11-2008 03:43:02 8.2 C 6.7 g/m*3 8.2 C 0 km/h
140 15-11-2008 03:55:02 8.2 C 6.7 g/m*3 8.2 C 0 km/h
141 15-11-2008 04:07:02 8.2 C 6.7 g/m*3 8.2 C 0 km/h
142 15-11-2008 04:19:02 8.2 C 6.7 g/m*3 8.2 C 0 km/h
143 15-11-2008 04:31:03 8.3 C 6.83 g/m*3 8.3 C 0 km/h
144 15-11-2008 04:43:03 8.4 C 6.87 g/m*3 8.4 C 0 km/h
145 15-11-2008 04:55:03 8.5 C 6.92 g/m*3 8.5 C 0 km/h
146 15-11-2008 05:07:03 8.5 C 6.92 g/m*3 8.5 C 0 km/h
147 15-11-2008 05:19:03 8.6 C 6.96 g/m*3 8.6 C 0 km/h
148 15-11-2008 05:31:03 8.7 C 7.01 g/m*3 8.7 C 0 km/h
149 15-11-2008 05:43:03 8.8 C 6.96 g/m*3 8.8 C 0 km/h
150 15-11-2008 05:55:03 8.8 C 6.96 g/m*3 8.8 C 0 km/h
Sensor: Nr:Datum:Temp:Abs-Feuchte:Windchill:Wind:
Aussen-T/F 151 15-11-2008 06:07:03 8.8 C 6.96 g/m*3 8.8 C 0 km/h
152 15-11-2008 06:19:03 8.8 C 6.96 g/m*3 8.8 C 0 km/h
153 15-11-2008 06:31:03 8.8 C 6.96 g/m*3 8.8 C 0 km/h
154 15-11-2008 06:43:03 8.9 C 7.01 g/m*3 8.9 C 0 km/h
155 15-11-2008 06:55:03 8.9 C 7.01 g/m*3 8.9 C 0 km/h
156 15-11-2008 07:07:03 9 C 6.96 g/m*3 9 C 0 km/h
157 15-11-2008 07:19:03 9 C 6.96 g/m*3 9 C 0 km/h
158 15-11-2008 07:31:03 9 C 6.96 g/m*3 9 C 0 km/h
159 15-11-2008 07:43:03 9 C 7.05 g/m*3 9 C 0 km/h
160 15-11-2008 07:55:03 9.4 C 7.15 g/m*3 9.4 C 0 km/h
161 15-11-2008 08:07:03 9.1 C 7.01 g/m*3 9.1 C 0 km/h
162 15-11-2008 08:19:01 9.3 C 7.1 g/m*3 9.3 C 0 km/h
163 15-11-2008 08:31:01 9.3 C 7.1 g/m*3 9.3 C 0 km/h
164 15-11-2008 08:43:01 9.3 C 7.01 g/m*3 9.3 C 0 km/h
165 15-11-2008 08:55:02 9.3 C 7.01 g/m*3 9.3 C 0 km/h
166 15-11-2008 09:07:02 9.4 C 7.05 g/m*3 9.4 C 0 km/h
167 15-11-2008 09:19:03 9.5 C 7.1 g/m*3 9.5 C 0 km/h
168 15-11-2008 09:31:02 9.5 C 7.01 g/m*3 9.5 C 0 km/h
169 15-11-2008 09:43:02 9.6 C 7.05 g/m*3 9.6 C 0 km/h
170 15-11-2008 09:55:02 9.6 C 7.05 g/m*3 9.6 C 0 km/h
171 15-11-2008 10:07:02 9.6 C 7.05 g/m*3 9.6 C 0 km/h
172 15-11-2008 10:19:02 9.7 C 7.01 g/m*3 9.7 C 0 km/h
173 15-11-2008 10:31:02 9.7 C 7.01 g/m*3 9.7 C 0 km/h
174 15-11-2008 10:43:03 9.8 C 7.05 g/m*3 9.8 C 0 km/h
175 15-11-2008 10:55:01 9.8 C 7.05 g/m*3 9.8 C 0 km/h
Sensor: Nr:Datum:Temp:Abs-Feuchte:Windchill:Wind:
Aussen-T/F 176 15-11-2008 11:07:02 9.8 C 7.05 g/m*3 9.8 C 0 km/h
177 15-11-2008 11:19:01 9.9 C 7.1 g/m*3 9.9 C 0 km/h
178 15-11-2008 11:31:02 10.1 C 7.09 g/m*3 10.1 C 0 km/h
179 15-11-2008 11:43:02 10.2 C 7.04 g/m*3 10.2 C 0 km/h
180 15-11-2008 11:55:02 10.4 C 7.13 g/m*3 10.4 C 0 km/h
181 15-11-2008 12:07:02 10.4 C 7.04 g/m*3 10.4 C 0 km/h
182 15-11-2008 12:19:02 10.6 C 7.03 g/m*3 10.6 C 0 km/h
183 15-11-2008 12:31:02 10.6 C 7.03 g/m*3 10.6 C 0 km/h
184 15-11-2008 12:43:02 10.7 C 7.07 g/m*3 10.7 C 0 km/h
185 15-11-2008 12:55:02 10.8 C 7.02 g/m*3 10.8 C 0 km/h
186 15-11-2008 13:07:01 11 C 6.91 g/m*3 11 C 0 km/h
187 15-11-2008 13:19:02 11 C 6.81 g/m*3 11 C 0 km/h
188 15-11-2008 13:31:02 11.1 C 6.85 g/m*3 11.1 C 0 km/h
189 15-11-2008 13:43:02 11.2 C 6.79 g/m*3 11.2 C 0 km/h
190 15-11-2008 13:55:02 11.3 C 6.83 g/m*3 11.3 C 0 km/h
191 15-11-2008 14:07:02 11.3 C 6.83 g/m*3 11.3 C 0 km/h
192 15-11-2008 14:19:02 11.3 C 6.83 g/m*3 11.3 C 0 km/h
193 15-11-2008 14:31:02 11.4 C 6.88 g/m*3 11.4 C 0 km/h
194 15-11-2008 14:43:02 11.4 C 6.88 g/m*3 11.4 C 0 km/h
195 15-11-2008 14:55:02 11.4 C 6.88 g/m*3 11.4 C 0 km/h
196 15-11-2008 15:07:02 11.3 C 6.94 g/m*3 11.3 C 0 km/h
197 15-11-2008 15:19:02 11.3 C 6.94 g/m*3 11.3 C 0 km/h
198 15-11-2008 15:31:02 11.3 C 6.94 g/m*3 11.3 C 0 km/h
199 15-11-2008 15:43:02 11.2 C 6.99 g/m*3 11.2 C 0 km/h
200 15-11-2008 15:55:02 11.2 C 6.99 g/m*3 11.2 C 0 km/h
Sensor: Nr:Datum:Temp:Abs-Feuchte:Windchill:Wind:
Aussen-T/F 201 15-11-2008 16:07:02 11.1 C 7.05 g/m*3 11.1 C 0 km/h
202 15-11-2008 16:19:02 11 C 7.01 g/m*3 11 C 0 km/h
203 15-11-2008 16:31:02 11 C 7.11 g/m*3 11 C 0 km/h
204 15-11-2008 16:43:02 11 C 7.11 g/m*3 11 C 0 km/h
205 15-11-2008 16:55:01 11 C 7.11 g/m*3 11 C 0 km/h
206 15-11-2008 17:07:02 10.9 C 7.16 g/m*3 10.9 C 0 km/h
207 15-11-2008 17:19:02 10.9 C 7.26 g/m*3 10.9 C 0 km/h
208 15-11-2008 17:31:02 10.9 C 7.26 g/m*3 10.9 C 0 km/h
209 15-11-2008 17:43:02 10.8 C 7.22 g/m*3 10.8 C 0 km/h
210 15-11-2008 17:55:02 10.8 C 7.31 g/m*3 10.8 C 0 km/h
211 15-11-2008 18:07:03 10.8 C 7.31 g/m*3 10.8 C 0 km/h
212 15-11-2008 18:19:02 10.7 C 7.27 g/m*3 10.7 C 0 km/h
213 15-11-2008 18:31:03 10.8 C 7.31 g/m*3 10.8 C 0 km/h
214 15-11-2008 18:43:03 10.7 C 7.27 g/m*3 10.7 C 0 km/h
215 15-11-2008 18:55:02 10.7 C 7.27 g/m*3 10.7 C 0 km/h
216 15-11-2008 19:07:02 10.7 C 7.27 g/m*3 10.7 C 0 km/h
217 15-11-2008 19:19:02 10.7 C 7.27 g/m*3 10.7 C 0 km/h
218 15-11-2008 19:31:02 10.7 C 7.27 g/m*3 10.7 C 0 km/h
219 15-11-2008 19:43:02 10.7 C 7.27 g/m*3 10.7 C 0 km/h
220 15-11-2008 19:55:01 10.7 C 7.37 g/m*3 10.7 C 0 km/h
221 15-11-2008 20:07:02 10.7 C 7.37 g/m*3 10.7 C 0 km/h
222 15-11-2008 20:19:01 10.6 C 7.32 g/m*3 10.6 C 0 km/h
223 15-11-2008 20:31:01 10.6 C 7.32 g/m*3 10.6 C 0 km/h
224 15-11-2008 20:43:01 10.6 C 7.42 g/m*3 10.6 C 0 km/h
225 15-11-2008 20:55:02 10.6 C 7.42 g/m*3 10.6 C 0 km/h
Sensor: Nr:Datum:Temp:Abs-Feuchte:Windchill:Wind:
Aussen-T/F 226 15-11-2008 21:07:02 10.5 C 7.47 g/m*3 10.5 C 0 km/h
227 15-11-2008 21:19:02 10.5 C 7.47 g/m*3 10.5 C 0 km/h
228 15-11-2008 21:31:02 10.5 C 7.47 g/m*3 10.5 C 0 km/h
229 15-11-2008 21:43:02 10.5 C 7.57 g/m*3 10.5 C 0 km/h
230 15-11-2008 21:55:02 10.5 C 7.57 g/m*3 10.5 C 0 km/h
231 15-11-2008 22:07:01 10.5 C 7.57 g/m*3 10.5 C 0 km/h
232 15-11-2008 22:19:02 10.5 C 7.57 g/m*3 10.5 C 0 km/h
233 15-11-2008 22:31:01 10.5 C 7.57 g/m*3 10.5 C 0 km/h
234 15-11-2008 22:43:01 10.4 C 7.52 g/m*3 10.4 C 0 km/h
235 15-11-2008 22:55:02 10.4 C 7.61 g/m*3 10.4 C 0 km/h
236 15-11-2008 23:07:01 10.4 C 7.61 g/m*3 10.4 C 0 km/h
237 15-11-2008 23:20:02 10.4 C 7.61 g/m*3 10.4 C 0 km/h
238 15-11-2008 23:32:02 10.4 C 7.61 g/m*3 10.4 C 0 km/h
239 15-11-2008 23:44:02 10.4 C 7.61 g/m*3 10.4 C 0 km/h
240 15-11-2008 23:56:03 10.3 C 7.66 g/m*3 10.3 C 0 km/h
241 16-11-2008 00:08:03 10.2 C 7.71 g/m*3 10.2 C 0 km/h
242 16-11-2008 00:20:03 10.1 C 7.85 g/m*3 10.1 C 0 km/h
243 16-11-2008 00:32:03 10 C 7.8 g/m*3 10 C 0 km/h
244 16-11-2008 00:44:03 10.1 C 7.94 g/m*3 10.1 C 0 km/h
245 16-11-2008 00:56:03 10 C 7.89 g/m*3 10 C 0 km/h
246 16-11-2008 01:08:03 10.1 C 7.94 g/m*3 10.1 C 0 km/h
247 16-11-2008 01:20:03 10.1 C 7.94 g/m*3 10.1 C 0 km/h
248 16-11-2008 01:32:03 10.1 C 7.94 g/m*3 10.1 C 0 km/h
249 16-11-2008 01:44:03 10.1 C 7.94 g/m*3 10.1 C 0 km/h
250 16-11-2008 01:56:03 10 C 7.99 g/m*3 10 C 0 km/h
Sensor: Nr:Datum:Temp:Abs-Feuchte:Windchill:Wind:
Aussen-T/F 251 16-11-2008 02:08:03 9.9 C 8.12 g/m*3 9.9 C 0 km/h
252 16-11-2008 02:20:03 10 C 8.08 g/m*3 10 C 0 km/h
253 16-11-2008 02:32:03 10.1 C 8.13 g/m*3 10.1 C 0 km/h
254 16-11-2008 02:44:03 10.2 C 8.18 g/m*3 10.2 C 0 km/h
255 16-11-2008 02:56:03 10.3 C 8.14 g/m*3 10.3 C 0 km/h
256 16-11-2008 03:08:03 10.3 C 8.04 g/m*3 10.3 C 0 km/h
257 16-11-2008 03:20:03 10.4 C 8 g/m*3 10.4 C 0 km/h
258 16-11-2008 03:32:03 10.4 C 8 g/m*3 10.4 C 0 km/h
259 16-11-2008 03:44:04 10.4 C 7.9 g/m*3 10.4 C 0 km/h
260 16-11-2008 03:56:04 10.4 C 7.9 g/m*3 10.4 C 0 km/h
261 16-11-2008 04:08:04 10.4 C 7.9 g/m*3 10.4 C 0 km/h
262 16-11-2008 04:20:04 10.5 C 7.95 g/m*3 10.5 C 0 km/h
263 16-11-2008 04:32:04 10.4 C 7.9 g/m*3 10.4 C 0 km/h
264 16-11-2008 04:44:04 10.5 C 7.95 g/m*3 10.5 C 0 km/h
265 16-11-2008 04:56:04 10.6 C 7.91 g/m*3 10.6 C 0 km/h
266 16-11-2008 05:08:04 10.7 C 7.86 g/m*3 10.7 C 0 km/h
267 16-11-2008 05:20:04 10.7 C 7.86 g/m*3 10.7 C 0 km/h
268 16-11-2008 05:32:04 10.7 C 7.86 g/m*3 10.7 C 0 km/h
269 16-11-2008 05:44:04 10.8 C 7.91 g/m*3 10.8 C 0 km/h
270 16-11-2008 05:56:04 10.8 C 7.81 g/m*3 10.8 C 0 km/h
271 16-11-2008 06:08:04 10.7 C 7.86 g/m*3 10.7 C 0 km/h
272 16-11-2008 06:20:04 10.5 C 7.86 g/m*3 10.5 C 0 km/h
273 16-11-2008 06:32:04 10.2 C 7.99 g/m*3 10.2 C 0 km/h
274 16-11-2008 06:44:04 10.3 C 8.14 g/m*3 10.3 C 0 km/h
275 16-11-2008 06:56:04 10.4 C 8.1 g/m*3 10.4 C 0 km/h
Sensor: Nr:Datum:Temp:Abs-Feuchte:Windchill:Wind:
Aussen-T/F 276 16-11-2008 07:08:04 10.5 C 8.15 g/m*3 10.5 C 0 km/h
277 16-11-2008 07:20:04 10.6 C 8.1 g/m*3 10.6 C 0 km/h
278 16-11-2008 07:32:04 10.7 C 8.05 g/m*3 10.7 C 0 km/h
279 16-11-2008 07:44:05 10.7 C 8.05 g/m*3 10.7 C 0 km/h
280 16-11-2008 07:56:05 10.8 C 8.11 g/m*3 10.8 C 0 km/h
281 16-11-2008 08:08:05 10.9 C 8.06 g/m*3 10.9 C 0 km/h
282 16-11-2008 08:20:01 11 C 8.01 g/m*3 11 C 0 km/h
283 16-11-2008 08:32:01 11.1 C 8.06 g/m*3 11.1 C 0 km/h
284 16-11-2008 08:44:01 11.2 C 8.01 g/m*3 11.2 C 0 km/h
285 16-11-2008 08:56:01 11.2 C 8.01 g/m*3 11.2 C 0 km/h
286 16-11-2008 09:08:01 11.2 C 8.01 g/m*3 11.2 C 0 km/h
287 16-11-2008 09:20:01 11.4 C 8.01 g/m*3 11.4 C 0 km/h
288 16-11-2008 09:32:01 11.7 C 8.16 g/m*3 11.7 C 0 km/h
289 16-11-2008 09:44:01 11.6 C 8.11 g/m*3 11.6 C 0 km/h
290 16-11-2008 09:56:02 11.6 C 8.21 g/m*3 11.6 C 0 km/h
291 16-11-2008 10:08:02 11.4 C 8.21 g/m*3 11.4 C 0 km/h
292 16-11-2008 10:20:02 11.2 C 8.21 g/m*3 11.2 C 0 km/h
293 16-11-2008 10:32:02 10.9 C 8.45 g/m*3 10.9 C 0 km/h
294 16-11-2008 10:44:02 10.7 C 8.64 g/m*3 10.7 C 0 km/h
295 16-11-2008 10:56:03 10.7 C 8.74 g/m*3 10.7 C 0 km/h
296 16-11-2008 11:08:03 10.8 C 8.9 g/m*3 10.8 C 0 km/h
297 16-11-2008 11:20:02 10.9 C 8.95 g/m*3 10.9 C 0 km/h
298 16-11-2008 11:32:02 11.1 C 9.07 g/m*3 11.1 C 0 km/h
299 16-11-2008 11:44:02 11.6 C 9.46 g/m*3 11.6 C 0 km/h
300 16-11-2008 11:56:02 12.2 C 9.71 g/m*3 12.2 C 0 km/h
Sensor: Nr:Datum:Temp:Abs-Feuchte:Windchill:Wind:
Aussen-T/F 301 16-11-2008 12:08:02 12.4 C 9.62 g/m*3 12.4 C 0 km/h
302 16-11-2008 12:20:02 12.5 C 9.46 g/m*3 12.5 C 0 km/h
303 16-11-2008 12:32:02 12.7 C 9.35 g/m*3 12.7 C 0 km/h
304 16-11-2008 12:44:02 12.7 C 9.35 g/m*3 12.7 C 0 km/h
305 16-11-2008 12:56:01 12.7 C 9.24 g/m*3 12.7 C 0 km/h
306 16-11-2008 13:08:02 12.7 C 9.13 g/m*3 12.7 C 0 km/h
307 16-11-2008 13:20:01 12.7 C 9.02 g/m*3 12.7 C 0 km/h
308 16-11-2008 13:32:02 12.4 C 8.85 g/m*3 12.4 C 0 km/h
309 16-11-2008 13:44:02 12.3 C 8.8 g/m*3 12.3 C 0 km/h
310 16-11-2008 13:56:01 12.1 C 8.79 g/m*3 12.1 C 0 km/h
311 16-11-2008 14:08:02 11.5 C 8.88 g/m*3 11.5 C 0 km/h
312 16-11-2008 14:20:01 10.9 C 8.65 g/m*3 10.9 C 0 km/h
313 16-11-2008 14:32:01 10.7 C 8.64 g/m*3 10.7 C 0 km/h
314 16-11-2008 14:44:01 10.4 C 8.58 g/m*3 10.4 C 0 km/h
315 16-11-2008 14:56:01 10.4 C 8.58 g/m*3 10.4 C 0 km/h
316 16-11-2008 15:08:02 10.3 C 8.62 g/m*3 10.3 C 0 km/h
317 16-11-2008 15:20:01 10.1 C 8.51 g/m*3 10.1 C 0 km/h
318 16-11-2008 15:32:02 10.1 C 8.61 g/m*3 10.1 C 0 km/h
319 16-11-2008 15:44:02 10 C 8.55 g/m*3 10 C 0 km/h
320 16-11-2008 15:56:02 9.9 C 8.68 g/m*3 9.9 C 0 km/h
321 16-11-2008 16:08:02 9.7 C 8.57 g/m*3 9.7 C 0 km/h
322 16-11-2008 16:20:02 9.6 C 8.43 g/m*3 9.6 C 0 km/h
323 16-11-2008 16:32:02 9.6 C 8.52 g/m*3 9.6 C 0 km/h
324 16-11-2008 16:44:02 9.5 C 8.37 g/m*3 9.5 C 0 km/h
325 16-11-2008 16:56:02 9.4 C 8.32 g/m*3 9.4 C 0 km/h
Sensor: Nr:Datum:Temp:Abs-Feuchte:Windchill:Wind:
Aussen-T/F 326 16-11-2008 17:08:02 9.1 C 7.99 g/m*3 9.1 C 0 km/h
327 16-11-2008 17:20:02 9.2 C 8.04 g/m*3 9.2 C 0 km/h
328 16-11-2008 17:32:02 9.2 C 7.95 g/m*3 9.2 C 0 km/h
329 16-11-2008 17:44:02 9.3 C 7.91 g/m*3 9.3 C 0 km/h
330 16-11-2008 17:56:02 9.1 C 7.72 g/m*3 9.1 C 0 km/h
331 16-11-2008 18:08:02 8.9 C 7.62 g/m*3 8.9 C 0 km/h
332 16-11-2008 18:20:02 8.8 C 7.66 g/m*3 8.8 C 0 km/h
333 16-11-2008 18:32:02 8.9 C 7.71 g/m*3 8.9 C 0 km/h
334 16-11-2008 18:44:02 8.9 C 7.71 g/m*3 8.9 C 0 km/h
335 16-11-2008 18:56:02 8.8 C 7.66 g/m*3 8.8 C 0 km/h
336 16-11-2008 19:08:03 8.5 C 7.43 g/m*3 8.5 C 0 km/h
337 16-11-2008 19:20:02 8.3 C 7.25 g/m*3 8.3 C 0 km/h
338 16-11-2008 19:32:02 8.2 C 7.29 g/m*3 8.2 C 0 km/h
339 16-11-2008 19:44:02 8.3 C 7.42 g/m*3 8.3 C 0 km/h
340 16-11-2008 19:56:02 8.6 C 7.39 g/m*3 8.6 C 0 km/h
341 16-11-2008 20:08:01 8.8 C 7.22 g/m*3 8.8 C 0 km/h
342 16-11-2008 20:20:02 8.9 C 7.01 g/m*3 8.9 C 0 km/h
343 16-11-2008 20:32:02 8.7 C 6.92 g/m*3 8.7 C 0 km/h
344 16-11-2008 20:44:02 8.7 C 6.83 g/m*3 8.7 C 0 km/h
345 16-11-2008 20:56:02 8.8 C 6.88 g/m*3 8.8 C 0 km/h
346 16-11-2008 21:08:02 8.8 C 6.79 g/m*3 8.8 C 0 km/h
347 16-11-2008 21:20:02 8.1 C 5.91 g/m*3 8.1 C 0 km/h
348 16-11-2008 21:32:02 7.6 C 5.8 g/m*3 7.6 C 0 km/h
349 16-11-2008 21:44:03 7.3 C 5.77 g/m*3 7.3 C 0 km/h
350 16-11-2008 21:56:02 7 C 5.81 g/m*3 7 C 0 km/h
Sensor: Nr:Datum:Temp:Abs-Feuchte:Windchill:Wind:
Aussen-T/F 351 16-11-2008 22:08:01 6.8 C 5.81 g/m*3 6.8 C 0 km/h
352 16-11-2008 22:20:01 6.7 C 5.77 g/m*3 6.7 C 0 km/h
353 16-11-2008 22:32:01 6.5 C 5.7 g/m*3 6.5 C 0 km/h
354 16-11-2008 22:44:01 6.3 C 5.7 g/m*3 6.3 C 0 km/h
355 16-11-2008 22:56:01 6.1 C 5.63 g/m*3 6.1 C 0 km/h
356 16-11-2008 23:08:01 5.8 C 5.73 g/m*3 5.8 C 0 km/h
357 16-11-2008 23:20:01 5.8 C 5.73 g/m*3 5.8 C 0 km/h
358 16-11-2008 23:32:01 5.9 C 5.7 g/m*3 5.9 C 0 km/h
359 16-11-2008 23:44:01 5.8 C 5.66 g/m*3 5.8 C 0 km/h
360 16-11-2008 23:56:01 5.6 C 5.59 g/m*3 5.6 C 0 km/h

Legende:
   Min
   Max


Maximal/Minimal-Werte vom 17.04.2019 - 19.05.2019

Sensor Min Max Avg
Temp
(Aussen-T/F)
2.2 °C
13-05-2019  06:50:00
26.6 °C
24-04-2019  17:05:00
11.51 °C

Die Daten stammen von einer Davis Vantage Pro 2 Wetter-Station und werden unter Linux mit der Software wview2wettercgi und aufbereitet. Alle Angaben erfolgen ohne Gewähr für ihre Vollständigkeit oder Richtigkeit.
Kontakt: Rainer Krienke krienke@uni-koblenz.de . Meine Webseiten an der Uni Koblenz oder privat.
Version: $Revision: 0.78 $